Currently 59°F in Murrieta, California, USA
59°F
61°F / 59°F
calm
0.00"
Wednesday, September 26, 2018 1:44 AM PDT

Murrieta, California Weather Summary
Last 36 Hours

Temperature Winds Hourly Humidity Dewpoint
Time Report Norm Report Norm Max Gusts Precip. Rpt. Norm Rpt. Norm Pressure
1Wed 01:44 AM  59.5°F  62°F  calm  1 mph  none  0.00"  91%  73%  57°F  53°F  29.98"
3Wed 01:31 AM  59.5°F  62°F  calm  1 mph  5 mph  ----  90%  73%  57°F  53°F  29.98"
Wed 01:00 AM  60.3°F  63°F  calm  1 mph  4 mph  0.00"  90%  72%  57°F  53°F  29.99"
2Wed 12:02 AM  61.2°F  64°F  calm  1 mph  3 mph  ----  87%  71%  57°F  54°F  29.98"
Wed 12:00 AM  61.2°F  64°F  calm  1 mph  4 mph  0.00"  87%  71%  57°F  54°F  29.98"
Tue 11:00 PM  62.8°F  65°F  2 mph W  1 mph  9 mph  0.00"  85%  70%  58°F  55°F  29.99"
Tue 10:00 PM  63.7°F  67°F  6 mph SW  2 mph  12 mph  0.00"  84%  68%  58°F  55°F  29.98"
Tue 09:00 PM  65.8°F  68°F  4 mph SW  2 mph  6 mph  0.00"  80%  64%  59°F  55°F  29.97"
Tue 08:00 PM  66.9°F  71°F  calm  4 mph  12 mph  0.00"  79%  61%  60°F  56°F  29.95"
Tue 07:00 PM  69.0°F  74°F  calm  6 mph  15 mph  0.00"  74%  54%  60°F  56°F  29.93"
Tue 06:00 PM  72.7°F  79°F  8 mph SW  7 mph  14 mph  0.00"  67%  45%  61°F  55°F  29.92"
Tue 05:00 PM  76.2°F  82°F  calm  7 mph  17 mph  0.00"  60%  38%  61°F  53°F  29.91"
Tue 04:00 PM  79.4°F  85°F  9 mph SW  9 mph  19 mph  0.00"  53%  34%  60°F  53°F  29.91"
Tue 03:00 PM  80.5°F  86°F  8 mph SW  9 mph  14 mph  0.00"  50%  32%  60°F  52°F  29.91"
Tue 02:00 PM  81.2°F  87°F  5 mph E  8 mph  8 mph  0.00"  51%  32%  61°F  52°F  29.93"
Tue 01:00 PM  77.1°F  86°F  calm  6 mph  9 mph  0.00"  61%  32%  62°F  51°F  29.96"
Tue 12:00 PM  71.3°F  84°F  calm  5 mph  9 mph  0.00"  73%  35%  62°F  52°F  29.98"
Tue 11:00 AM  65.2°F  80°F  3 mph SW  4 mph  7 mph  0.00"  86%  42%  61°F  54°F  30.00"
Tue 10:00 AM  62.8°F  74°F  3 mph SW  2 mph  10 mph  0.00"  93%  54%  61°F  56°F  30.00"
Tue 09:00 AM  61.2°F  69°F  calm  1 mph  10 mph  0.00"  96%  67%  60°F  57°F  29.98"
Tue 08:00 AM  60.0°F  62°F  4 mph SW  1 mph  8 mph  0.00"  97%  78%  59°F  55°F  29.97"
Tue 07:00 AM  59.0°F  58°F  calm  1 mph  6 mph  0.00"  97%  81%  58°F  52°F  29.94"
Tue 06:00 AM  57.9°F  59°F  4 mph SW  1 mph  8 mph  0.00"  97%  80%  57°F  52°F  29.93"
Tue 05:00 AM  57.0°F  59°F  2 mph W  1 mph  6 mph  0.00"  97%  78%  56°F  52°F  29.92"
Tue 04:00 AM  58.7°F  60°F  calm  1 mph  5 mph  0.00"  96%  77%  58°F  52°F  29.91"
Tue 03:00 AM  58.4°F  61°F  calm  1 mph  5 mph  0.00"  96%  76%  57°F  53°F  29.92"
Tue 02:00 AM  57.1°F  62°F  2 mph W  1 mph  8 mph  0.00"  96%  74%  56°F  53°F  29.92"
Tue 01:00 AM  58.1°F  63°F  5 mph SW  1 mph  8 mph  0.00"  96%  73%  57°F  54°F  29.93"
Tue 12:00 AM  58.6°F  64°F  2 mph W  1 mph  4 mph  0.00"  95%  72%  57°F  54°F  29.93"
Mon 11:00 PM  59.3°F  65°F  calm  1 mph  6 mph  0.00"  95%  70%  58°F  55°F  29.93"
Mon 10:00 PM  60.7°F  66°F  4 mph SW  2 mph  7 mph  0.00"  95%  68%  59°F  55°F  29.93"
Mon 09:00 PM  61.5°F  68°F  3 mph W  2 mph  8 mph  0.00"  93%  65%  59°F  56°F  29.92"
Mon 08:00 PM  62.7°F  71°F  calm  5 mph  17 mph  0.00"  90%  61%  60°F  56°F  29.91"
Mon 07:00 PM  64.4°F  74°F  9 mph SW  6 mph  17 mph  0.00"  87%  54%  60°F  56°F  29.89"
Mon 06:00 PM  67.9°F  78°F  10 mph SW  7 mph  22 mph  0.00"  80%  46%  61°F  55°F  29.88"
Mon 05:00 PM  71.6°F  82°F  12 mph SW  7 mph  22 mph  0.00"  71%  39%  62°F  53°F  29.87"
Mon 04:00 PM  74.6°F  85°F  calm  9 mph  24 mph  0.00"  65%  35%  62°F  53°F  29.86"
Mon 03:00 PM  75.5°F  86°F  14 mph SW  9 mph  21 mph  0.00"  63%  33%  62°F  52°F  29.87"
Mon 02:00 PM  76.2°F  86°F  calm  8 mph  18 mph  0.00"  62%  32%  62°F  52°F  29.89"

  1. Current weather data. No green row appears if the current weather data is also the high or low for the current day.
  2. High temperature for the current day.
  3. Low temperature for the current day.

The Murrieta weather pages are a service of WeatherCurrents. Murrieta, California is located in the Temecula Valley, in southwestern Riverside County, at the junctions of the Interstate 15 and 215 highways.
Copyright ©Wed Sep 26 01:45:25 PDT 2018  WeatherCurrents. All rights reserved. - Submit questions and comments - Privacy Policy

This page automatically refreshes every 10 minutes.